TimeCST,TemperatureF,Dew PointF,Humidity,Sea Level PressureIn,VisibilityMPH,Wind Direction,Wind SpeedMPH,Gust SpeedMPH,PrecipitationIn,Events,Conditions,WindDirDegrees,DateUTC
12:53 AM,33.1,32.0,96,29.63,6.0,ESE,12.7,-,N/A,,Overcast,110,2013-02-21 06:53:00
1:18 AM,33.8,30.2,87,29.61,1.5,East,15.0,-,N/A,,Overcast,100,2013-02-21 07:18:00
1:27 AM,32.0,30.2,93,29.61,0.5,East,17.3,-,N/A,Fog,Fog,100,2013-02-21 07:27:00
1:35 AM,32.0,30.2,93,29.61,0.2,East,12.7,-,N/A,Fog,Fog,100,2013-02-21 07:35:00
1:53 AM,32.0,30.9,96,29.62,0.5,ESE,17.3,-,N/A,Fog,Fog,110,2013-02-21 07:53:00
2:04 AM,32.0,30.2,93,29.61,0.2,ESE,18.4,-,N/A,Fog,Fog,110,2013-02-21 08:04:00
2:21 AM,32.0,30.2,93,29.62,0.5,SE,19.6,-,N/A,Fog,Fog,130,2013-02-21 08:21:00
2:32 AM,32.0,30.2,93,29.61,1.2,SE,20.7,-,N/A,,Overcast,130,2013-02-21 08:32:00
2:43 AM,32.0,30.2,93,29.60,0.5,SE,21.9,-,N/A,Fog,Fog,130,2013-02-21 08:43:00
2:50 AM,32.0,30.2,93,29.60,2.0,SE,20.7,-,N/A,,Overcast,130,2013-02-21 08:50:00
2:53 AM,32.0,30.9,96,29.60,5.0,SE,20.7,-,N/A,,Overcast,130,2013-02-21 08:53:00
3:34 AM,32.0,30.2,93,29.59,5.0,SSE,15.0,-,N/A,,Overcast,150,2013-02-21 09:34:00
3:46 AM,32.0,30.2,93,29.58,6.0,SSE,16.1,-,N/A,,Overcast,160,2013-02-21 09:46:00
3:53 AM,32.0,30.0,92,29.58,7.0,SSE,16.1,-,N/A,,Overcast,160,2013-02-21 09:53:00
4:53 AM,32.0,30.0,92,29.55,2.5,ESE,11.5,-,0.00,Snow,Light Snow,120,2013-02-21 10:53:00
5:16 AM,30.2,30.2,100,29.55,1.0,ESE,13.8,-,0.00,Snow,Light Snow,120,2013-02-21 11:16:00
5:36 AM,30.2,28.4,93,29.55,2.0,ESE,9.2,-,0.00,Snow,Light Snow,120,2013-02-21 11:36:00
5:48 AM,30.2,28.4,93,29.56,4.0,ESE,8.1,-,0.00,Snow,Light Snow,120,2013-02-21 11:48:00
5:53 AM,30.2,28.4,93,29.56,5.0,ESE,8.1,-,N/A,Snow,Light Snow,110,2013-02-21 11:53:00
6:15 AM,30.2,28.4,93,29.56,4.0,NE,8.1,-,0.00,Snow,Light Snow,50,2013-02-21 12:15:00
6:22 AM,30.2,28.4,93,29.57,1.8,ENE,8.1,-,N/A,Snow,Light Snow,60,2013-02-21 12:22:00
6:38 AM,30.2,28.4,93,29.57,0.5,ENE,5.8,-,0.00,Fog-Snow,Snow,60,2013-02-21 12:38:00
6:45 AM,30.2,28.4,93,29.57,0.5,ENE,5.8,-,0.00,Fog-Snow,Snow,60,2013-02-21 12:45:00
6:53 AM,30.0,28.9,96,29.59,0.2,NE,6.9,-,0.00,Fog-Snow,Snow,50,2013-02-21 12:53:00
7:26 AM,30.2,28.4,93,29.58,0.5,ENE,8.1,-,0.00,Fog-Snow,Snow,60,2013-02-21 13:26:00
7:43 AM,28.4,26.6,93,29.58,0.2,ENE,8.1,-,0.00,Fog-Snow,Snow,60,2013-02-21 13:43:00
7:53 AM,28.9,27.0,92,29.60,0.2,ENE,9.2,-,0.00,Fog-Snow,Snow,70,2013-02-21 13:53:00
7:57 AM,28.4,26.6,93,29.58,0.5,ENE,10.4,-,0.00,Fog-Snow,Snow,70,2013-02-21 13:57:00
8:26 AM,28.4,26.6,93,29.60,0.5,NE,9.2,-,0.00,Fog-Snow,Snow,40,2013-02-21 14:26:00
8:53 AM,28.9,27.0,92,29.62,0.2,NE,10.4,-,0.00,Fog-Snow,Snow,40,2013-02-21 14:53:00
9:28 AM,28.4,26.6,93,29.61,0.5,NE,12.7,-,0.00,Fog-Snow,Snow,50,2013-02-21 15:28:00
9:53 AM,28.9,26.1,89,29.65,0.5,NE,9.2,-,0.00,Fog-Snow,Snow,40,2013-02-21 15:53:00
10:03 AM,28.4,26.6,93,29.63,0.5,NNE,9.2,-,0.00,Fog-Snow,Snow,30,2013-02-21 16:03:00
10:25 AM,30.2,26.6,86,29.63,2.0,NNE,10.4,-,0.00,Snow,Light Snow,20,2013-02-21 16:25:00
10:35 AM,30.2,26.6,86,29.64,5.0,NNE,11.5,-,0.00,Snow,Light Snow,20,2013-02-21 16:35:00
10:42 AM,30.2,26.6,86,29.64,6.0,North,10.4,-,0.00,Snow,Light Snow,360,2013-02-21 16:42:00
10:53 AM,30.0,26.1,85,29.66,10.0,NNE,12.7,-,0.00,,Overcast,20,2013-02-21 16:53:00
11:41 AM,30.2,26.6,86,29.68,10.0,North,13.8,-,N/A,,Overcast,10,2013-02-21 17:41:00
11:53 AM,30.0,26.1,85,29.71,10.0,North,13.8,-,N/A,,Overcast,10,2013-02-21 17:53:00
12:14 PM,30.2,24.8,80,29.70,10.0,North,17.3,-,0.02,,Overcast,10,2013-02-21 18:14:00
12:49 PM,26.6,23.0,86,29.72,5.0,NNE,18.4,-,0.05,,Overcast,30,2013-02-21 18:49:00
12:53 PM,27.0,23.0,85,29.76,4.0,NNE,18.4,-,0.05,,Overcast,20,2013-02-21 18:53:00
1:53 PM,25.0,19.9,81,29.77,9.0,North,19.6,-,N/A,,Overcast,10,2013-02-21 19:53:00
2:53 PM,25.0,21.0,85,29.80,5.0,North,16.1,-,N/A,,Overcast,10,2013-02-21 20:53:00
3:40 PM,26.6,21.2,80,29.76,9.0,NNE,15.0,-,N/A,,Overcast,20,2013-02-21 21:40:00
3:53 PM,27.0,21.0,78,29.79,9.0,North,13.8,-,N/A,,Overcast,10,2013-02-21 21:53:00
4:10 PM,26.6,21.2,80,29.77,10.0,NNE,12.7,-,N/A,,Scattered Clouds,20,2013-02-21 22:10:00
4:19 PM,26.6,21.2,80,29.77,10.0,NNE,11.5,-,N/A,,Mostly Cloudy,30,2013-02-21 22:19:00
4:53 PM,27.0,19.9,75,29.81,10.0,NNE,10.4,-,N/A,,Mostly Cloudy,20,2013-02-21 22:53:00
5:00 PM,26.6,19.4,74,29.77,10.0,NNE,12.7,-,N/A,,Scattered Clouds,30,2013-02-21 23:00:00
5:51 PM,26.6,19.4,74,29.79,10.0,NNE,15.0,-,N/A,,Mostly Cloudy,20,2013-02-21 23:51:00
5:53 PM,27.0,19.9,75,29.83,10.0,NNE,13.8,-,N/A,,Mostly Cloudy,20,2013-02-21 23:53:00
6:53 PM,21.0,17.1,85,29.88,8.0,ENE,8.1,-,N/A,,Clear,60,2013-02-22 00:53:00
7:53 PM,18.0,16.0,92,29.94,6.0,Calm,Calm,-,N/A,,Partly Cloudy,0,2013-02-22 01:53:00
8:26 PM,14.0,10.4,86,29.88,1.8,Calm,Calm,-,N/A,,Clear,0,2013-02-22 02:26:00
8:41 PM,19.4,15.8,86,29.88,0.8,Calm,Calm,-,N/A,,Scattered Clouds,0,2013-02-22 02:41:00
8:45 PM,21.2,17.6,86,29.88,2.0,NNE,5.8,-,N/A,,Scattered Clouds,20,2013-02-22 02:45:00
8:53 PM,21.0,17.1,85,29.94,4.0,North,9.2,-,N/A,,Scattered Clouds,10,2013-02-22 02:53:00
9:32 PM,17.6,12.2,79,29.90,2.5,Calm,Calm,-,N/A,,Mostly Cloudy,0,2013-02-22 03:32:00
9:42 PM,19.4,15.8,86,29.91,4.0,NW,4.6,-,N/A,,Mostly Cloudy,310,2013-02-22 03:42:00
9:53 PM,18.0,14.0,84,29.98,4.0,North,8.1,-,N/A,,Overcast,350,2013-02-22 03:53:00
10:53 PM,23.0,18.0,81,29.96,9.0,North,9.2,-,N/A,,Overcast,360,2013-02-22 04:53:00
11:53 PM,24.1,17.1,75,29.97,10.0,NNW,6.9,-,N/A,,Overcast,340,2013-02-22 05:53:00